Latest Coastal Weather Observations for Townsville

IDQ60701

Issued at 12:12 pm EST Saturday 20 December 2014 (issued every 10 minutes, with the page automatically refreshed every 10 minutes)

About coastal observations | Map of coastal stations | Coastal observations for QLD | Marine services | Other Formats
Station Details ID: 032040 Name: TOWNSVILLE AERO Lat: -19.25 Lon: 146.77 Height: 4.34 m
Data from the previous 72 hours. | See also: Recent months at Townsville
Date/Time
EST
Temp

°C
Wind Pressure Rain
since 9am
mm
Weather Cloud Vis
km
Sea
Height
m
Swell
Dir
 
Speed
knots
Gust
knots
hPa Trend Height
m
Period
s
Dir
20/12:00pm 31.0 NE 11 15 1011.1 R 0.0 Fine Mostly cloudy 30 - - - -
20/11:30am 31.2 NE 10 14 1011.6 - 0.0 - Mostly clear 10 - - - -
20/11:00am 30.9 ENE 10 13 1011.7 - 0.0 - Mostly clear 10 - - - -
20/10:30am 30.8 ENE 9 11 1011.9 - 0.0 - Mostly clear 10 - - - -
20/10:00am 30.1 ENE 7 9 1012.0 - 0.0 - Mostly clear 10 - - - -
20/09:30am 29.8 NE 6 9 1012.2 - 0.0 - Partly cloudy 10 - - - -
20/09:00am 29.2 ENE 3 6 1012.1 R 1.2 Fine Mostly cloudy 30 - - - -
20/08:00am 28.1 CALM 0 3 1011.9 - 1.2 - Mostly clear 10 - - - -
20/07:30am 27.6 SE 2 5 1011.7 - 1.2 - Mostly clear 10 - - - -
20/07:00am 27.2 SSE 4 5 1011.4 - 1.2 - Partly cloudy 10 - - - -
20/06:30am 26.8 SE 5 6 1011.2 - 1.2 - Partly cloudy 10 - - - -
20/06:00am 26.4 SSE 4 5 1010.7 F 1.2 Fine Mostly cloudy 30 - - - -
20/05:30am 26.3 CALM 0 0 1010.4 - 1.2 - Partly cloudy 10 - - - -
20/05:00am 26.2 SSW 3 4 1010.2 - 1.2 - Partly cloudy 10 - - - -
20/04:30am 26.4 SW 3 6 1010.1 - 1.2 - Partly cloudy 10 - - - -
20/04:00am 26.3 SW 3 4 1009.9 - 1.2 - Partly cloudy 10 - - - -
20/03:30am 26.3 WNW 3 5 1010.0 - 1.2 - Partly cloudy 10 - - - -
20/03:00am 26.3 NW 3 4 1010.1 - 1.2 - Cloudy 10 - - - -
20/02:30am 25.9 NNW 4 4 1010.3 - 1.2 - Partly cloudy 10 - - - -
20/02:00am 26.5 E 1 4 1010.4 - 1.2 - Partly cloudy 10 - - - -
20/01:30am 26.4 CALM 0 0 1010.6 - 1.2 - Partly cloudy 10 - - - -
20/01:00am 26.2 SE 5 5 1010.9 - 1.2 - Cloudy 10 - - - -
20/12:30am 25.8 ESE 6 7 1011.2 - 1.2 - Partly cloudy 10 - - - -
20/12:00am 26.1 NE 5 6 1011.4 - 1.2 - Cloudy 10 - - - -
 
Date/Time
EST
Temp

°C
Wind Pressure Rain
since 9am
mm
Weather Cloud Vis
km
Sea
Height
m
Swell
Dir
 
Speed
knots
Gust
knots
hPa Trend Height
m
Period
s
Dir
19/11:52pm 26.0 N 3 5 1011.6 - 1.2 - Partly cloudy 10 - - - -
19/11:40pm 25.8 NNW 5 6 1011.9 - 1.2 - Partly cloudy 6 - - - -
19/11:30pm 26.3 N 6 7 1011.8 - 0.4 - Partly cloudy 10 - - - -
19/11:00pm 27.7 NNW 4 5 1011.9 - 0.0 - Partly cloudy 10 - - - -
19/10:30pm 27.6 CALM 0 0 1012.0 - 0.0 - Cloudy 10 - - - -
19/10:00pm 27.4 N 1 4 1011.7 - 0.0 - Partly cloudy 10 - - - -
19/09:30pm 28.2 ENE 6 7 1011.5 - 0.0 - Partly cloudy 10 - - - -
19/09:00pm 28.0 NNE 5 6 1011.3 - 0.0 - - 10 - - - -
19/08:30pm 27.9 NNE 5 6 1011.2 - 0.0 - Partly cloudy 10 - - - -
19/08:00pm 28.1 NE 6 7 1011.3 - 0.0 - - 10 - - - -
19/07:30pm 28.1 ENE 9 10 1010.8 - 0.0 - Partly cloudy 10 - - - -
19/07:00pm 28.2 ENE 9 11 1010.7 - 0.0 - Partly cloudy 10 - - - -
19/06:30pm 28.5 ENE 10 12 1010.5 - 0.0 - Partly cloudy 10 - - - -
19/06:00pm 28.5 ENE 11 14 1009.8 R 0.0 Fine Mostly cloudy 30 - - - -
19/05:30pm 29.6 ENE 12 14 1009.4 - 0.0 - Mostly clear 10 - - - -
19/05:00pm 30.2 ENE 13 16 1008.8 - 0.0 - Mostly clear 10 - - - -
19/04:30pm 30.3 NE 11 15 1008.7 - 0.0 - Mostly clear 10 - - - -
19/04:00pm 30.6 ENE 8 10 1008.8 - 0.0 - Mostly clear 10 - - - -
19/03:30pm 30.6 NE 9 13 1008.8 - 0.0 - Mostly clear 10 - - - -
19/03:00pm 31.6 NNE 8 13 1009.0 F 0.0 Fine Mostly cloudy 40 - - - -
19/02:30pm 30.0 NNE 9 13 1009.6 - 0.0 - Mostly clear 10 - - - -
19/02:00pm 30.3 N 6 12 1009.7 - 0.0 - Mostly clear 10 - - - -
19/01:30pm 30.2 N 8 14 1010.0 - 0.0 - Mostly clear 10 - - - -
19/01:00pm 31.1 N 9 14 1010.4 - 0.0 - Mostly clear 10 - - - -
19/12:30pm 30.7 NNE 10 14 1010.7 - 0.0 - Mostly clear 10 - - - -
19/12:00pm 30.3 NNW 7 11 1011.0 R 0.0 Fine Partly cloudy 40 - - - -
19/11:30am 30.7 NNW 8 11 1011.4 - 0.0 - Mostly clear 10 - - - -
19/11:00am 29.8 N 9 10 1011.6 - 0.0 - Mostly clear 10 - - - -
19/10:30am 30.7 N 9 15 1012.0 - 0.0 - Mostly clear 10 - - - -
19/10:00am 29.5 N 10 15 1012.0 - 0.0 - Partly cloudy 10 - - - -
19/09:30am 29.6 N 10 14 1011.9 - 0.0 - Mostly clear 10 - - - -
19/09:00am 30.6 N 10 15 1011.9 F 0.0 Fine Mostly cloudy 35 - - - -
19/08:30am 28.7 N 10 15 1012.1 - 0.0 - Mostly clear 10 - - - -
19/08:00am 29.3 N 8 10 1012.1 - 0.0 - Mostly clear 10 - - - -
19/07:30am 28.6 N 8 12 1012.0 - 0.0 - Mostly clear 10 - - - -
19/07:00am 27.5 N 8 10 1011.8 - 0.0 - Mostly clear 10 - - - -
19/06:30am 27.5 NNE 6 7 1011.5 - 0.0 - Partly cloudy 10 - - - -
19/06:00am 26.5 N 5 6 1011.1 R 0.0 Fine Mostly cloudy 35 - - - -
19/05:30am 25.4 NNE 4 6 1010.3 - 0.0 - Partly cloudy 10 - - - -
19/05:00am 26.3 NNE 4 5 1009.9 - 0.0 - Partly cloudy 10 - - - -
19/04:30am 25.9 NNE 4 6 1009.5 - 0.0 - - 10 - - - -
19/04:00am 25.9 E 2 4 1009.3 - 0.0 - - 10 - - - -
19/03:30am 25.5 CALM 0 0 1009.6 - 0.0 - - 10 - - - -
19/03:00am 25.8 CALM 0 0 1009.7 - 0.0 - - 10 - - - -
19/02:30am 25.5 CALM 0 0 1010.2 - 0.0 - - 10 - - - -
19/02:00am 25.5 CALM 0 0 1010.6 - 0.0 - - 10 - - - -
19/01:30am 25.4 CALM 0 0 1011.1 - 0.0 - - 10 - - - -
19/01:00am 25.3 CALM 0 0 1011.4 - 0.0 - - 10 - - - -
19/12:30am 25.0 CALM 0 0 1011.9 - 0.0 - - 10 - - - -
19/12:00am 26.1 E 2 4 1012.1 - 0.0 - - 10 - - - -
 
Date/Time
EST
Temp

°C
Wind Pressure Rain
since 9am
mm
Weather Cloud Vis
km
Sea
Height
m
Swell
Dir
 
Speed
knots
Gust
knots
hPa Trend Height
m
Period
s
Dir
18/11:30pm 26.5 E 5 6 1012.6 - 0.0 - - 10 - - - -
18/11:00pm 27.6 SW 6 7 1013.4 - 0.0 - Partly cloudy 10 - - - -
18/10:30pm 26.7 WSW 6 7 1013.1 - 0.0 - Mostly clear 10 - - - -
18/10:00pm 27.2 N 6 8 1011.9 - 0.0 - - 10 - - - -
18/09:30pm 27.3 N 7 9 1011.5 - 0.0 - - 10 - - - -
18/09:00pm 27.3 N 7 10 1011.3 R 0.0 Fine Mostly cloudy 45 - - - -
18/08:30pm 27.2 N 8 10 1011.2 - 0.0 - - 10 - - - -
18/08:00pm 27.3 N 6 8 1010.9 - 0.0 - - 10 - - - -
18/07:30pm 27.3 N 6 7 1010.4 - 0.0 - - 10 - - - -
18/07:00pm 27.6 N 8 11 1010.2 - 0.0 - - 10 - - - -
18/06:30pm 27.9 N 11 14 1009.6 - 0.0 - - 10 - - - -
18/06:00pm 28.4 N 11 16 1009.1 S 0.0 Fine Partly cloudy 50 - - - -
18/05:30pm 28.6 N 13 17 1009.0 - 0.0 - - 10 - - - -
18/05:00pm 29.1 N 14 16 1008.9 - 0.0 - - 10 - - - -
18/04:30pm 29.8 N 14 19 1008.2 - 0.0 - - 10 - - - -
18/04:00pm 30.4 N 14 18 1008.1 - 0.0 - - 10 - - - -
18/03:30pm 30.3 N 13 17 1008.5 - 0.0 - Mostly clear 10 - - - -
18/03:00pm 30.8 N 13 19 1009.0 F 0.0 Fine Mostly clear 45 - - - -
18/02:30pm 30.9 NNE 12 17 1009.6 - 0.0 - Mostly clear 10 - - - -
18/02:00pm 30.6 N 13 17 1010.1 - 0.0 - Mostly clear 10 - - - -
18/01:30pm 31.6 NNE 11 15 1010.2 - 0.0 - Mostly clear 10 - - - -
18/01:00pm 30.8 N 13 18 1010.5 - 0.0 - Mostly clear 10 - - - -
18/12:30pm 31.5 NNE 13 17 1010.8 - 0.0 - Mostly clear 10 - - - -
18/12:00pm 31.5 N 11 17 1010.9 R 0.0 Fine Mostly clear 40 - - - -
18/11:30am 31.2 N 10 17 1011.2 - 0.0 - Mostly clear 10 - - - -
18/11:00am 30.7 N 11 19 1011.5 - 0.0 - Mostly clear 10 - - - -
18/10:30am 30.2 N 11 14 1011.7 - 0.0 - Mostly clear 10 - - - -
18/10:00am 29.4 N 12 17 1011.8 - 0.0 - Mostly clear 10 - - - -
18/09:30am 30.6 N 10 14 1011.9 - 0.0 - Mostly clear 10 - - - -
18/09:00am 30.3 NNW 11 14 1011.9 R 0.0 Haze Partly cloudy 35 - - - -
18/08:30am 28.8 N 13 17 1011.8 - 0.0 - Partly cloudy 10 - - - -
18/08:00am 28.3 N 11 15 1011.8 - 0.0 - Partly cloudy 10 - - - -
18/07:30am 28.3 N 9 12 1011.7 - 0.0 - Partly cloudy 10 - - - -
18/07:00am 28.1 N 8 12 1011.3 - 0.0 - Partly cloudy 10 - - - -
18/06:30am 27.6 N 7 9 1010.8 - 0.0 - Partly cloudy 10 - - - -
18/06:00am 26.7 N 6 8 1010.3 R 0.0 Haze Partly cloudy 30 - - - -
18/05:30am 26.4 N 6 7 1009.9 - 0.0 - Partly cloudy 10 - - - -
18/05:00am 26.5 N 7 8 1009.6 - 0.0 - Partly cloudy 10 - - - -
18/04:30am 26.5 N 7 10 1009.1 - 0.0 - - 10 - - - -
18/04:00am 26.2 N 6 7 1009.1 - 0.0 - - 10 - - - -
18/03:30am 26.4 N 6 8 1008.8 - 0.0 - - 10 - - - -
18/03:00am 26.4 N 6 8 1008.7 - 0.0 - - 10 - - - -
18/02:30am 26.3 N 6 8 1008.9 - 0.0 - - 10 - - - -
18/02:00am 26.6 N 6 9 1009.2 - 0.0 - - 10 - - - -
18/01:30am 26.8 N 6 8 1009.4 - 0.0 - - 10 - - - -
18/01:00am 26.9 N 8 11 1009.3 - 0.0 - - 10 - - - -
18/12:30am 26.9 N 7 11 1009.6 - 0.0 - - 10 - - - -
18/12:00am 27.3 N 9 12 1009.9 - 0.0 - - 10 - - - -
 
Date/Time
EST
Temp

°C
Wind Pressure Rain
since 9am
mm
Weather Cloud Vis
km
Sea
Height
m
Swell
Dir
 
Speed
knots
Gust
knots
hPa Trend Height
m
Period
s
Dir
17/11:30pm 27.1 N 7 8 1010.2 - 0.0 - - 10 - - - -
17/11:00pm 27.2 N 7 8 1010.3 - 0.0 - - 10 - - - -
17/10:30pm 27.4 N 7 9 1010.2 - 0.0 - - 10 - - - -
17/10:00pm 27.5 N 9 12 1010.3 - 0.0 - - 10 - - - -
17/09:30pm 27.5 N 6 8 1009.9 - 0.0 - - 10 - - - -
17/09:00pm 27.6 N 10 14 1009.5 R 0.0 Fine Mostly clear 45 - - - -
17/08:30pm 27.6 N 8 10 1009.0 - 0.0 - - 10 - - - -
17/08:00pm 27.7 N 10 13 1008.7 - 0.0 - - 10 - - - -
17/07:30pm 28.0 N 10 13 1008.4 - 0.0 - - 10 - - - -
17/07:00pm 28.1 N 10 13 1008.3 - 0.0 - - 10 - - - -
17/06:30pm 28.4 N 13 15 1008.0 - 0.0 - - 10 - - - -
17/06:00pm 29.0 N 13 16 1007.3 R 0.0 Fine Mostly clear 45 - - - -
17/05:30pm 29.7 N 15 17 1007.2 - 0.0 - - 10 - - - -
17/05:00pm 30.1 N 15 18 1006.6 - 0.0 - - 10 - - - -
17/04:30pm 30.8 N 14 19 1006.4 - 0.0 - - 10 - - - -
17/04:00pm 30.9 N 13 18 1006.5 - 0.0 - - 10 - - - -
17/03:30pm 31.2 N 12 16 1006.7 - 0.0 - - 10 - - - -
17/03:00pm 32.2 N 10 14 1006.8 F 0.0 Fine Mostly clear 45 - - - -
17/02:30pm 32.5 NNE 10 17 1007.2 - 0.0 - Mostly clear 10 - - - -
17/02:00pm 32.7 NNE 9 15 1007.4 - 0.0 - Mostly clear 10 - - - -
17/01:30pm 32.9 NNE 11 15 1007.9 - 0.0 - Mostly clear 10 - - - -
17/01:00pm 32.0 NNE 11 15 1008.3 - 0.0 - Mostly clear 10 - - - -
17/12:30pm 31.9 N 9 14 1008.7 - 0.0 - Mostly clear 10 - - - -

Other Formats:

Comma delimited format used in spreadsheet applications
http://www.bom.gov.au/fwo/IDQ60701/IDQ60701.94294.axf

JavaScript Object Notation format (JSON) in row-major order
http://www.bom.gov.au/fwo/IDQ60701/IDQ60701.94294.json